sensor_id;sensor_type;location;lat;lon;timestamp;P1;durP1;ratioP1;P2;durP2;ratioP2
1086;SDS011;532;49.436;11.100;2022-07-22T00:35:42;8.40;;;5.13;;
1086;SDS011;532;49.436;11.100;2022-07-22T00:39:37;7.93;;;5.30;;
1086;SDS011;532;49.436;11.100;2022-07-22T00:43:33;7.22;;;4.95;;
1086;SDS011;532;49.436;11.100;2022-07-22T00:47:54;8.45;;;5.70;;
1086;SDS011;532;49.436;11.100;2022-07-22T01:00:06;7.70;;;5.00;;
1086;SDS011;532;49.436;11.100;2022-07-22T02:05:30;11.23;;;5.85;;
1086;SDS011;532;49.436;11.100;2022-07-22T02:09:48;9.95;;;5.47;;
1086;SDS011;532;49.436;11.100;2022-07-22T02:29:55;9.43;;;5.70;;
1086;SDS011;532;49.436;11.100;2022-07-22T02:38:10;8.27;;;5.22;;
1086;SDS011;532;49.436;11.100;2022-07-22T06:33:08;10.13;;;5.47;;
1086;SDS011;532;49.436;11.100;2022-07-22T06:36:06;9.65;;;5.70;;
1086;SDS011;532;49.436;11.100;2022-07-22T06:38:37;10.48;;;5.70;;
1086;SDS011;532;49.436;11.100;2022-07-22T06:41:19;9.90;;;5.63;;
1086;SDS011;532;49.436;11.100;2022-07-22T06:44:34;9.50;;;5.00;;
1086;SDS011;532;49.436;11.100;2022-07-22T06:47:13;10.43;;;5.55;;
1086;SDS011;532;49.436;11.100;2022-07-22T06:50:05;7.53;;;4.80;;
1086;SDS011;532;49.436;11.100;2022-07-22T06:53:00;10.05;;;5.15;;
1086;SDS011;532;49.436;11.100;2022-07-22T06:55:50;11.40;;;5.28;;
1086;SDS011;532;49.436;11.100;2022-07-22T06:58:38;8.70;;;5.65;;
1086;SDS011;532;49.436;11.100;2022-07-22T07:01:32;9.95;;;5.50;;
1086;SDS011;532;49.436;11.100;2022-07-22T07:04:20;10.80;;;5.93;;
1086;SDS011;532;49.436;11.100;2022-07-22T07:07:13;8.82;;;5.45;;
1086;SDS011;532;49.436;11.100;2022-07-22T07:10:16;8.68;;;5.47;;
1086;SDS011;532;49.436;11.100;2022-07-22T07:13:17;11.20;;;5.75;;
1086;SDS011;532;49.436;11.100;2022-07-22T07:16:07;8.93;;;5.07;;
1086;SDS011;532;49.436;11.100;2022-07-22T07:18:56;9.25;;;5.53;;
1086;SDS011;532;49.436;11.100;2022-07-22T07:22:10;10.70;;;6.45;;
1086;SDS011;532;49.436;11.100;2022-07-22T07:27:54;9.15;;;5.35;;
1086;SDS011;532;49.436;11.100;2022-07-22T09:02:42;11.43;;;5.80;;
1086;SDS011;532;49.436;11.100;2022-07-22T09:05:14;8.52;;;5.45;;
1086;SDS011;532;49.436;11.100;2022-07-22T09:08:15;8.43;;;5.22;;
1086;SDS011;532;49.436;11.100;2022-07-22T09:11:16;8.73;;;5.20;;
1086;SDS011;532;49.436;11.100;2022-07-22T09:14:03;9.60;;;6.05;;
1086;SDS011;532;49.436;11.100;2022-07-22T09:16:45;10.45;;;5.63;;
1086;SDS011;532;49.436;11.100;2022-07-22T09:19:41;9.00;;;5.40;;
1086;SDS011;532;49.436;11.100;2022-07-22T09:22:35;12.18;;;5.70;;
1086;SDS011;532;49.436;11.100;2022-07-22T09:25:22;8.00;;;5.00;;
1086;SDS011;532;49.436;11.100;2022-07-22T09:28:15;9.10;;;5.10;;
1086;SDS011;532;49.436;11.100;2022-07-22T09:31:22;8.82;;;5.30;;
1086;SDS011;532;49.436;11.100;2022-07-22T09:34:00;8.25;;;4.82;;
1086;SDS011;532;49.436;11.100;2022-07-22T09:36:30;10.30;;;5.80;;
1086;SDS011;532;49.436;11.100;2022-07-22T09:38:59;9.63;;;5.20;;
1086;SDS011;532;49.436;11.100;2022-07-22T09:41:28;8.45;;;5.25;;
1086;SDS011;532;49.436;11.100;2022-07-22T09:46:54;7.18;;;4.95;;
1086;SDS011;532;49.436;11.100;2022-07-22T09:49:41;15.07;;;5.20;;
1086;SDS011;532;49.436;11.100;2022-07-22T09:52:36;7.72;;;4.88;;
1086;SDS011;532;49.436;11.100;2022-07-22T09:55:08;9.03;;;4.97;;
1086;SDS011;532;49.436;11.100;2022-07-22T09:57:38;6.80;;;4.95;;
1086;SDS011;532;49.436;11.100;2022-07-22T10:00:10;9.15;;;5.35;;
1086;SDS011;532;49.436;11.100;2022-07-22T10:02:40;8.57;;;4.97;;
1086;SDS011;532;49.436;11.100;2022-07-22T10:05:13;8.43;;;5.20;;
1086;SDS011;532;49.436;11.100;2022-07-22T10:07:44;10.15;;;5.10;;
1086;SDS011;532;49.436;11.100;2022-07-22T10:10:14;8.82;;;4.82;;
1086;SDS011;532;49.436;11.100;2022-07-22T10:12:44;8.40;;;4.95;;
1086;SDS011;532;49.436;11.100;2022-07-22T10:15:16;7.90;;;5.25;;
1086;SDS011;532;49.436;11.100;2022-07-22T10:17:47;8.40;;;5.22;;
1086;SDS011;532;49.436;11.100;2022-07-22T10:20:17;8.50;;;5.70;;
1086;SDS011;532;49.436;11.100;2022-07-22T10:22:48;8.02;;;4.85;;
1086;SDS011;532;49.436;11.100;2022-07-22T10:25:27;9.02;;;5.13;;
1086;SDS011;532;49.436;11.100;2022-07-22T10:27:58;8.77;;;5.20;;
1086;SDS011;532;49.436;11.100;2022-07-22T10:30:38;10.63;;;5.85;;
1086;SDS011;532;49.436;11.100;2022-07-22T10:33:08;8.50;;;5.63;;
1086;SDS011;532;49.436;11.100;2022-07-22T10:35:52;7.90;;;5.45;;
1086;SDS011;532;49.436;11.100;2022-07-22T10:38:28;7.20;;;5.00;;
1086;SDS011;532;49.436;11.100;2022-07-22T10:41:30;9.93;;;5.55;;
1086;SDS011;532;49.436;11.100;2022-07-22T10:50:48;7.82;;;5.10;;
1086;SDS011;532;49.436;11.100;2022-07-22T10:53:24;9.65;;;4.95;;
1086;SDS011;532;49.436;11.100;2022-07-22T10:55:58;8.88;;;5.18;;
1086;SDS011;532;49.436;11.100;2022-07-22T10:58:50;9.95;;;5.20;;
1086;SDS011;532;49.436;11.100;2022-07-22T11:01:22;8.20;;;5.30;;
1086;SDS011;532;49.436;11.100;2022-07-22T11:03:54;7.93;;;5.13;;
1086;SDS011;532;49.436;11.100;2022-07-22T11:06:25;9.05;;;5.43;;
1086;SDS011;532;49.436;11.100;2022-07-22T11:08:56;11.77;;;5.47;;
1086;SDS011;532;49.436;11.100;2022-07-22T11:11:38;8.30;;;5.20;;
1086;SDS011;532;49.436;11.100;2022-07-22T11:14:16;6.93;;;4.78;;
1086;SDS011;532;49.436;11.100;2022-07-22T11:16:48;10.48;;;5.32;;
1086;SDS011;532;49.436;11.100;2022-07-22T11:19:23;8.20;;;5.05;;
1086;SDS011;532;49.436;11.100;2022-07-22T11:21:53;7.57;;;4.95;;
1086;SDS011;532;49.436;11.100;2022-07-22T11:24:24;8.77;;;5.35;;
1086;SDS011;532;49.436;11.100;2022-07-22T11:26:53;7.10;;;4.82;;
1086;SDS011;532;49.436;11.100;2022-07-22T11:29:30;8.93;;;4.97;;
1086;SDS011;532;49.436;11.100;2022-07-22T11:32:03;8.50;;;5.07;;
1086;SDS011;532;49.436;11.100;2022-07-22T11:34:37;8.38;;;4.80;;
1086;SDS011;532;49.436;11.100;2022-07-22T11:37:09;8.70;;;5.03;;
1086;SDS011;532;49.436;11.100;2022-07-22T11:39:38;7.35;;;4.95;;
1086;SDS011;532;49.436;11.100;2022-07-22T11:42:08;9.97;;;5.00;;
1086;SDS011;532;49.436;11.100;2022-07-22T11:44:37;7.25;;;4.80;;
1086;SDS011;532;49.436;11.100;2022-07-22T11:47:32;7.97;;;5.10;;
1086;SDS011;532;49.436;11.100;2022-07-22T11:50:03;9.02;;;5.05;;
1086;SDS011;532;49.436;11.100;2022-07-22T11:52:56;8.27;;;5.15;;
1086;SDS011;532;49.436;11.100;2022-07-22T11:55:26;7.13;;;5.13;;
1086;SDS011;532;49.436;11.100;2022-07-22T11:57:56;10.35;;;5.75;;
1086;SDS011;532;49.436;11.100;2022-07-22T12:00:32;8.30;;;5.57;;
1086;SDS011;532;49.436;11.100;2022-07-22T12:03:04;7.80;;;5.07;;
1086;SDS011;532;49.436;11.100;2022-07-22T12:05:34;8.83;;;5.53;;
1086;SDS011;532;49.436;11.100;2022-07-22T12:08:06;7.33;;;4.83;;
1086;SDS011;532;49.436;11.100;2022-07-22T12:10:34;7.95;;;4.90;;
1086;SDS011;532;49.436;11.100;2022-07-22T12:13:03;8.13;;;5.20;;
1086;SDS011;532;49.436;11.100;2022-07-22T12:15:31;6.88;;;5.05;;
1086;SDS011;532;49.436;11.100;2022-07-22T12:18:16;8.57;;;4.93;;
1086;SDS011;532;49.436;11.100;2022-07-22T12:20:48;6.63;;;4.80;;
1086;SDS011;532;49.436;11.100;2022-07-22T12:23:20;7.72;;;4.97;;
1086;SDS011;532;49.436;11.100;2022-07-22T12:25:53;7.32;;;5.00;;
1086;SDS011;532;49.436;11.100;2022-07-22T12:28:47;8.02;;;5.28;;
1086;SDS011;532;49.436;11.100;2022-07-22T12:31:16;7.50;;;5.00;;
1086;SDS011;532;49.436;11.100;2022-07-22T12:33:47;6.77;;;4.90;;
1086;SDS011;532;49.436;11.100;2022-07-22T12:36:18;8.18;;;5.10;;
1086;SDS011;532;49.436;11.100;2022-07-22T12:38:46;7.90;;;4.80;;
1086;SDS011;532;49.436;11.100;2022-07-22T12:41:25;7.75;;;4.97;;
1086;SDS011;532;49.436;11.100;2022-07-22T12:43:57;8.70;;;5.32;;
1086;SDS011;532;49.436;11.100;2022-07-22T12:46:50;8.25;;;4.80;;
1086;SDS011;532;49.436;11.100;2022-07-22T12:49:20;7.30;;;5.00;;
1086;SDS011;532;49.436;11.100;2022-07-22T12:52:07;7.97;;;4.70;;
1086;SDS011;532;49.436;11.100;2022-07-22T12:54:40;7.72;;;4.70;;
1086;SDS011;532;49.436;11.100;2022-07-22T12:57:09;7.22;;;4.75;;
1086;SDS011;532;49.436;11.100;2022-07-22T12:59:38;7.90;;;5.30;;
1086;SDS011;532;49.436;11.100;2022-07-22T13:02:07;7.32;;;4.95;;
1086;SDS011;532;49.436;11.100;2022-07-22T13:04:35;8.10;;;4.63;;
1086;SDS011;532;49.436;11.100;2022-07-22T13:07:04;9.25;;;5.05;;
1086;SDS011;532;49.436;11.100;2022-07-22T13:09:35;7.70;;;4.60;;
1086;SDS011;532;49.436;11.100;2022-07-22T13:12:04;7.75;;;4.90;;
1086;SDS011;532;49.436;11.100;2022-07-22T13:14:33;8.80;;;5.10;;
1086;SDS011;532;49.436;11.100;2022-07-22T13:17:01;7.33;;;4.13;;
1086;SDS011;532;49.436;11.100;2022-07-22T13:22:25;7.47;;;4.68;;
1086;SDS011;532;49.436;11.100;2022-07-22T13:24:55;8.57;;;4.90;;
1086;SDS011;532;49.436;11.100;2022-07-22T13:27:23;7.18;;;4.80;;
1086;SDS011;532;49.436;11.100;2022-07-22T13:29:51;9.00;;;5.03;;
1086;SDS011;532;49.436;11.100;2022-07-22T13:32:21;7.55;;;4.40;;
1086;SDS011;532;49.436;11.100;2022-07-22T13:35:14;6.00;;;4.43;;
1086;SDS011;532;49.436;11.100;2022-07-22T13:37:42;6.82;;;4.82;;
1086;SDS011;532;49.436;11.100;2022-07-22T13:40:13;8.90;;;4.70;;
1086;SDS011;532;49.436;11.100;2022-07-22T13:42:44;9.23;;;4.95;;
1086;SDS011;532;49.436;11.100;2022-07-22T13:45:13;9.32;;;4.68;;
1086;SDS011;532;49.436;11.100;2022-07-22T13:47:42;6.50;;;4.50;;
1086;SDS011;532;49.436;11.100;2022-07-22T13:50:10;7.60;;;4.80;;
1086;SDS011;532;49.436;11.100;2022-07-22T13:52:42;7.72;;;4.68;;
1086;SDS011;532;49.436;11.100;2022-07-22T13:55:14;10.07;;;4.75;;
1086;SDS011;532;49.436;11.100;2022-07-22T13:57:43;7.97;;;5.10;;
1086;SDS011;532;49.436;11.100;2022-07-22T14:00:11;6.38;;;4.57;;
1086;SDS011;532;49.436;11.100;2022-07-22T14:02:42;6.90;;;4.43;;
1086;SDS011;532;49.436;11.100;2022-07-22T14:05:11;7.53;;;4.80;;
1086;SDS011;532;49.436;11.100;2022-07-22T14:07:41;7.75;;;4.60;;
1086;SDS011;532;49.436;11.100;2022-07-22T14:10:10;6.43;;;4.43;;
1086;SDS011;532;49.436;11.100;2022-07-22T14:12:39;6.47;;;4.50;;
1086;SDS011;532;49.436;11.100;2022-07-22T14:15:08;7.13;;;5.00;;
1086;SDS011;532;49.436;11.100;2022-07-22T14:17:39;6.18;;;4.40;;
1086;SDS011;532;49.436;11.100;2022-07-22T14:20:07;6.82;;;4.38;;
1086;SDS011;532;49.436;11.100;2022-07-22T14:22:37;7.43;;;4.53;;
1086;SDS011;532;49.436;11.100;2022-07-22T14:25:06;8.25;;;4.15;;
1086;SDS011;532;49.436;11.100;2022-07-22T14:28:00;6.77;;;4.57;;
1086;SDS011;532;49.436;11.100;2022-07-22T14:30:49;6.95;;;4.40;;
1086;SDS011;532;49.436;11.100;2022-07-22T14:33:17;6.78;;;4.00;;
1086;SDS011;532;49.436;11.100;2022-07-22T14:36:09;6.55;;;4.63;;
1086;SDS011;532;49.436;11.100;2022-07-22T14:38:44;7.30;;;4.55;;
1086;SDS011;532;49.436;11.100;2022-07-22T14:41:18;8.07;;;4.50;;
1086;SDS011;532;49.436;11.100;2022-07-22T14:44:19;6.22;;;4.40;;
1086;SDS011;532;49.436;11.100;2022-07-22T14:46:48;6.40;;;4.10;;
1086;SDS011;532;49.436;11.100;2022-07-22T14:49:18;6.00;;;3.92;;
1086;SDS011;532;49.436;11.100;2022-07-22T14:51:46;6.67;;;3.93;;
1086;SDS011;532;49.436;11.100;2022-07-22T14:54:15;7.03;;;4.20;;
1086;SDS011;532;49.436;11.100;2022-07-22T14:56:44;6.90;;;4.40;;
1086;SDS011;532;49.436;11.100;2022-07-22T14:59:12;6.13;;;4.35;;
1086;SDS011;532;49.436;11.100;2022-07-22T15:01:42;6.22;;;4.07;;
1086;SDS011;532;49.436;11.100;2022-07-22T15:04:10;7.85;;;4.38;;
1086;SDS011;532;49.436;11.100;2022-07-22T15:06:39;6.03;;;4.50;;
1086;SDS011;532;49.436;11.100;2022-07-22T15:09:09;6.70;;;4.68;;
1086;SDS011;532;49.436;11.100;2022-07-22T15:11:40;8.10;;;4.72;;
1086;SDS011;532;49.436;11.100;2022-07-22T15:14:17;8.73;;;4.50;;
1086;SDS011;532;49.436;11.100;2022-07-22T15:16:47;7.93;;;4.60;;
1086;SDS011;532;49.436;11.100;2022-07-22T15:19:16;6.95;;;4.50;;
1086;SDS011;532;49.436;11.100;2022-07-22T15:21:55;6.57;;;4.68;;
1086;SDS011;532;49.436;11.100;2022-07-22T15:24:24;7.85;;;4.35;;
1086;SDS011;532;49.436;11.100;2022-07-22T15:26:52;10.27;;;5.72;;
1086;SDS011;532;49.436;11.100;2022-07-22T15:29:24;6.10;;;4.68;;
1086;SDS011;532;49.436;11.100;2022-07-22T15:31:54;6.70;;;4.40;;
1086;SDS011;532;49.436;11.100;2022-07-22T15:34:22;6.18;;;4.35;;
1086;SDS011;532;49.436;11.100;2022-07-22T15:36:50;6.28;;;4.25;;
1086;SDS011;532;49.436;11.100;2022-07-22T15:39:20;7.70;;;4.67;;
1086;SDS011;532;49.436;11.100;2022-07-22T15:41:49;6.93;;;4.57;;
1086;SDS011;532;49.436;11.100;2022-07-22T15:44:17;5.97;;;4.60;;
1086;SDS011;532;49.436;11.100;2022-07-22T15:46:46;7.93;;;4.50;;
1086;SDS011;532;49.436;11.100;2022-07-22T15:52:46;7.15;;;4.28;;
1086;SDS011;532;49.436;11.100;2022-07-22T15:55:15;8.65;;;4.70;;
1086;SDS011;532;49.436;11.100;2022-07-22T15:57:44;7.53;;;4.10;;
1086;SDS011;532;49.436;11.100;2022-07-22T16:00:32;7.63;;;4.10;;
1086;SDS011;532;49.436;11.100;2022-07-22T16:03:01;7.97;;;4.63;;
1086;SDS011;532;49.436;11.100;2022-07-22T16:05:29;6.30;;;4.75;;
1086;SDS011;532;49.436;11.100;2022-07-22T16:07:58;7.63;;;4.40;;
1086;SDS011;532;49.436;11.100;2022-07-22T16:10:27;6.40;;;4.22;;
1086;SDS011;532;49.436;11.100;2022-07-22T16:12:55;7.30;;;4.47;;
1086;SDS011;532;49.436;11.100;2022-07-22T16:15:24;7.82;;;4.28;;
1086;SDS011;532;49.436;11.100;2022-07-22T16:17:53;5.18;;;3.90;;
1086;SDS011;532;49.436;11.100;2022-07-22T16:20:21;8.65;;;4.88;;
1086;SDS011;532;49.436;11.100;2022-07-22T16:22:50;6.72;;;4.43;;
1086;SDS011;532;49.436;11.100;2022-07-22T16:25:20;6.00;;;4.30;;
1086;SDS011;532;49.436;11.100;2022-07-22T16:27:48;6.75;;;3.92;;
1086;SDS011;532;49.436;11.100;2022-07-22T16:30:16;6.70;;;4.32;;
1086;SDS011;532;49.436;11.100;2022-07-22T16:32:45;6.50;;;4.30;;
1086;SDS011;532;49.436;11.100;2022-07-22T22:00:13;9.13;;;5.15;;
1086;SDS011;532;49.436;11.100;2022-07-22T22:02:42;11.18;;;5.70;;
1086;SDS011;532;49.436;11.100;2022-07-22T22:05:11;10.07;;;5.47;;
1086;SDS011;532;49.436;11.100;2022-07-22T22:07:39;7.65;;;5.32;;
1086;SDS011;532;49.436;11.100;2022-07-22T22:10:08;8.95;;;5.20;;
1086;SDS011;532;49.436;11.100;2022-07-22T22:12:38;8.27;;;5.50;;
1086;SDS011;532;49.436;11.100;2022-07-22T22:15:07;9.70;;;5.30;;
1086;SDS011;532;49.436;11.100;2022-07-22T22:17:36;8.93;;;5.50;;
1086;SDS011;532;49.436;11.100;2022-07-22T22:20:05;10.13;;;5.55;;
1086;SDS011;532;49.436;11.100;2022-07-22T22:22:35;9.77;;;4.80;;
1086;SDS011;532;49.436;11.100;2022-07-22T22:25:03;8.70;;;5.18;;
1086;SDS011;532;49.436;11.100;2022-07-22T22:27:40;10.20;;;5.05;;
1086;SDS011;532;49.436;11.100;2022-07-22T22:30:09;8.43;;;4.97;;
1086;SDS011;532;49.436;11.100;2022-07-22T22:32:38;7.70;;;5.40;;
1086;SDS011;532;49.436;11.100;2022-07-22T22:35:07;9.20;;;5.00;;
1086;SDS011;532;49.436;11.100;2022-07-22T22:37:43;9.23;;;5.78;;
1086;SDS011;532;49.436;11.100;2022-07-22T22:40:11;8.80;;;5.20;;
1086;SDS011;532;49.436;11.100;2022-07-22T22:42:42;9.85;;;5.10;;
1086;SDS011;532;49.436;11.100;2022-07-22T22:45:10;9.15;;;5.30;;
1086;SDS011;532;49.436;11.100;2022-07-22T22:47:39;7.97;;;5.55;;
1086;SDS011;532;49.436;11.100;2022-07-22T22:50:07;7.32;;;5.20;;
1086;SDS011;532;49.436;11.100;2022-07-22T22:52:36;8.00;;;5.00;;
1086;SDS011;532;49.436;11.100;2022-07-22T22:55:05;8.18;;;5.28;;
1086;SDS011;532;49.436;11.100;2022-07-22T22:57:34;8.17;;;5.97;;
1086;SDS011;532;49.436;11.100;2022-07-22T23:00:04;7.43;;;5.57;;
1086;SDS011;532;49.436;11.100;2022-07-22T23:02:33;10.57;;;5.70;;
1086;SDS011;532;49.436;11.100;2022-07-22T23:05:01;8.95;;;5.50;;
1086;SDS011;532;49.436;11.100;2022-07-22T23:07:30;9.18;;;5.93;;
1086;SDS011;532;49.436;11.100;2022-07-22T23:09:58;8.37;;;5.47;;
1086;SDS011;532;49.436;11.100;2022-07-22T23:12:26;8.03;;;5.73;;
1086;SDS011;532;49.436;11.100;2022-07-22T23:14:54;10.57;;;5.70;;
1086;SDS011;532;49.436;11.100;2022-07-22T23:17:24;8.35;;;6.13;;
1086;SDS011;532;49.436;11.100;2022-07-22T23:19:52;8.20;;;5.25;;
1086;SDS011;532;49.436;11.100;2022-07-22T23:22:22;8.05;;;5.07;;
1086;SDS011;532;49.436;11.100;2022-07-22T23:27:43;9.23;;;5.57;;
1086;SDS011;532;49.436;11.100;2022-07-22T23:30:14;15.98;;;6.25;;
1086;SDS011;532;49.436;11.100;2022-07-22T23:32:44;9.30;;;5.85;;
1086;SDS011;532;49.436;11.100;2022-07-22T23:35:15;9.57;;;5.20;;
1086;SDS011;532;49.436;11.100;2022-07-22T23:37:43;10.95;;;6.18;;
1086;SDS011;532;49.436;11.100;2022-07-22T23:40:12;11.02;;;6.00;;
1086;SDS011;532;49.436;11.100;2022-07-22T23:42:40;10.55;;;5.22;;
1086;SDS011;532;49.436;11.100;2022-07-22T23:45:09;9.25;;;5.60;;
1086;SDS011;532;49.436;11.100;2022-07-22T23:47:38;11.25;;;6.10;;
1086;SDS011;532;49.436;11.100;2022-07-22T23:50:08;8.88;;;5.72;;
1086;SDS011;532;49.436;11.100;2022-07-22T23:52:36;9.73;;;5.38;;
1086;SDS011;532;49.436;11.100;2022-07-22T23:55:05;9.50;;;6.35;;
1086;SDS011;532;49.436;11.100;2022-07-22T23:57:34;9.60;;;5.63;;
